createdAt,value
2022-10-31T00:00:08.924Z,62.71
2022-10-31T00:02:38.702Z,62.66
2022-10-31T00:05:07.488Z,63.05
2022-10-31T00:07:36.892Z,62.58
2022-10-31T00:10:05.543Z,62.58
2022-10-31T00:12:33.877Z,62.94
2022-10-31T00:15:02.221Z,62.91
2022-10-31T00:17:30.435Z,62.55
2022-10-31T00:20:00.406Z,62.56
2022-10-31T00:22:28.656Z,62.83
2022-10-31T00:24:56.854Z,62.90
2022-10-31T00:27:25.256Z,62.90
2022-10-31T00:29:53.422Z,62.95
2022-10-31T00:32:21.588Z,62.88
2022-10-31T00:34:49.986Z,62.84
2022-10-31T00:37:19.583Z,63.13
2022-10-31T00:39:50.083Z,63.19
2022-10-31T00:42:18.293Z,62.86
2022-10-31T00:44:46.468Z,63.04
2022-10-31T00:47:14.605Z,63.30
2022-10-31T00:49:42.747Z,62.99
2022-10-31T00:52:11.077Z,62.67
2022-10-31T00:54:40.649Z,62.69
2022-10-31T00:57:08.803Z,62.81
2022-10-31T00:59:36.830Z,62.71
2022-10-31T01:02:05.157Z,62.94
2022-10-31T01:04:33.513Z,62.59
2022-10-31T01:07:01.436Z,62.54
2022-10-31T01:09:29.346Z,63.03
2022-10-31T01:11:58.609Z,63.16
2022-10-31T01:14:26.661Z,63.00
2022-10-31T01:16:54.594Z,62.99
2022-10-31T01:19:22.496Z,63.29
2022-10-31T01:21:50.432Z,63.34
2022-10-31T01:24:18.321Z,63.44
2022-10-31T01:26:46.206Z,63.46
2022-10-31T01:29:15.461Z,63.23
2022-10-31T01:31:43.325Z,62.94
2022-10-31T01:34:12.352Z,63.28
2022-10-31T01:36:41.559Z,63.25
2022-10-31T01:39:12.759Z,62.80
2022-10-31T01:41:42.008Z,63.01
2022-10-31T01:44:43.188Z,63.30
2022-10-31T01:47:15.287Z,63.21
2022-10-31T01:49:45.305Z,63.18
2022-10-31T01:52:15.017Z,63.23
2022-10-31T01:54:44.534Z,63.22
2022-10-31T01:57:12.772Z,63.33
2022-10-31T01:59:42.235Z,63.04
2022-10-31T02:02:10.240Z,63.26
2022-10-31T02:04:39.617Z,62.98
2022-10-31T02:07:10.459Z,63.43
2022-10-31T02:09:38.392Z,63.31
2022-10-31T02:12:06.746Z,63.04
2022-10-31T02:14:34.639Z,63.30
2022-10-31T02:17:02.516Z,62.92
2022-10-31T02:19:42.719Z,63.04
2022-10-31T02:22:12.122Z,62.96
2022-10-31T02:24:46.043Z,62.98
2022-10-31T02:27:19.189Z,63.32
2022-10-31T02:30:05.998Z,63.27
2022-10-31T02:32:49.484Z,63.11
2022-10-31T02:35:23.750Z,63.39
2022-10-31T02:37:53.198Z,63.50
2022-10-31T02:40:24.011Z,63.25
2022-10-31T02:42:53.593Z,62.92
2022-10-31T02:45:23.789Z,63.26
2022-10-31T02:47:53.022Z,62.98
2022-10-31T02:50:23.206Z,62.96
2022-10-31T02:52:52.654Z,62.90
2022-10-31T02:55:59.262Z,63.08
2022-10-31T02:58:29.106Z,63.38
2022-10-31T03:01:12.815Z,63.62
2022-10-31T03:03:47.087Z,63.46
2022-10-31T03:06:16.490Z,63.58
2022-10-31T03:08:45.914Z,63.25
2022-10-31T03:11:13.776Z,63.67
2022-10-31T03:13:43.327Z,63.42
2022-10-31T03:16:13.081Z,63.18
2022-10-31T03:18:44.895Z,63.34
2022-10-31T03:21:14.712Z,63.27
2022-10-31T03:23:42.783Z,63.47
2022-10-31T03:26:11.386Z,63.38
2022-10-31T03:28:41.807Z,63.41
2022-10-31T03:31:09.709Z,63.28
2022-10-31T03:33:38.186Z,63.36
2022-10-31T03:36:08.402Z,63.38
2022-10-31T03:38:36.331Z,63.48
2022-10-31T03:41:04.622Z,63.40
2022-10-31T03:43:34.520Z,63.14
2022-10-31T03:46:02.433Z,63.21
2022-10-31T03:48:30.358Z,63.17
2022-10-31T03:51:01.471Z,63.20
2022-10-31T03:53:33.342Z,63.03
2022-10-31T03:56:03.179Z,62.90
2022-10-31T03:58:33.443Z,63.02
2022-10-31T04:01:01.427Z,63.03
2022-10-31T04:03:30.633Z,63.12
2022-10-31T04:06:00.572Z,62.84
2022-10-31T04:08:30.451Z,62.71
2022-10-31T04:10:58.825Z,63.04
2022-10-31T04:13:27.851Z,62.86
2022-10-31T04:15:56.390Z,62.78
2022-10-31T04:18:24.723Z,62.87
2022-10-31T04:21:01.901Z,62.57
2022-10-31T04:23:31.201Z,62.42
2022-10-31T04:25:59.041Z,62.71
2022-10-31T04:28:26.941Z,62.86
2022-10-31T04:30:55.079Z,62.73
2022-10-31T04:33:23.012Z,62.59
2022-10-31T04:35:50.893Z,62.46
2022-10-31T04:38:18.802Z,62.65
2022-10-31T04:40:48.421Z,62.45
2022-10-31T04:43:16.318Z,62.67
2022-10-31T04:45:44.193Z,62.38
2022-10-31T04:48:12.075Z,62.63
2022-10-31T04:50:39.978Z,62.60
2022-10-31T04:53:07.802Z,62.42
2022-10-31T04:55:35.660Z,62.28
2022-10-31T04:58:05.353Z,62.39
2022-10-31T05:00:33.750Z,62.42
2022-10-31T05:03:01.935Z,62.46
2022-10-31T05:05:31.260Z,61.97
2022-10-31T05:07:59.158Z,62.35
2022-10-31T05:10:27.963Z,62.54
2022-10-31T05:12:56.698Z,62.54
2022-10-31T05:15:27.044Z,62.36
2022-10-31T05:17:55.265Z,62.61
2022-10-31T05:20:24.452Z,62.33
2022-10-31T05:22:53.734Z,62.54
2022-10-31T05:25:23.162Z,62.26
2022-10-31T05:27:51.663Z,62.25
2022-10-31T05:30:21.144Z,62.54
2022-10-31T05:32:51.186Z,62.25
2022-10-31T05:35:19.913Z,62.27
2022-10-31T05:37:47.830Z,62.18
2022-10-31T05:40:16.585Z,62.47
2022-10-31T05:42:44.776Z,62.10
2022-10-31T05:45:13.761Z,62.43
2022-10-31T05:47:41.619Z,61.92
2022-10-31T05:50:11.590Z,61.92
2022-10-31T05:52:39.465Z,62.21
2022-10-31T05:55:07.960Z,62.21
2022-10-31T05:57:35.923Z,61.71
2022-10-31T06:00:04.086Z,62.19
2022-10-31T06:02:35.373Z,62.05
2022-10-31T06:05:03.434Z,62.10
2022-10-31T06:07:36.239Z,61.75
2022-10-31T06:10:04.524Z,62.05
2022-10-31T06:12:32.457Z,62.16
2022-10-31T06:15:00.303Z,61.71
2022-10-31T06:17:28.286Z,61.78
2022-10-31T06:19:56.790Z,61.90
2022-10-31T06:22:24.734Z,62.05
2022-10-31T06:24:54.113Z,61.61
2022-10-31T06:27:22.149Z,61.43
2022-10-31T06:29:52.810Z,61.67
2022-10-31T06:32:21.023Z,61.70
2022-10-31T06:34:49.982Z,61.86
2022-10-31T06:37:17.894Z,61.61
2022-10-31T06:39:45.777Z,61.87
2022-10-31T06:42:15.029Z,61.83
2022-10-31T06:44:42.897Z,61.90
2022-10-31T06:47:10.818Z,61.79
2022-10-31T06:49:38.676Z,61.70
2022-10-31T06:52:07.109Z,61.54
2022-10-31T06:54:34.949Z,61.82
2022-10-31T06:57:02.839Z,61.93
2022-10-31T06:59:32.146Z,61.85
2022-10-31T07:02:00.097Z,61.53
2022-10-31T07:04:28.112Z,61.51
2022-10-31T07:06:56.032Z,61.77
2022-10-31T07:09:24.026Z,61.50
2022-10-31T07:11:53.914Z,61.28
2022-10-31T07:14:21.794Z,61.42
2022-10-31T07:16:52.362Z,61.12
2022-10-31T07:19:20.280Z,61.07
2022-10-31T07:21:48.195Z,61.36
2022-10-31T07:24:16.270Z,61.21
2022-10-31T07:26:46.937Z,61.27
2022-10-31T07:29:15.044Z,61.39
2022-10-31T07:31:43.026Z,61.31
2022-10-31T07:34:12.323Z,61.38
2022-10-31T07:36:40.207Z,61.29
2022-10-31T07:39:08.158Z,61.11
2022-10-31T07:41:36.071Z,60.94
2022-10-31T07:44:03.986Z,61.13
2022-10-31T07:46:31.932Z,61.38
2022-10-31T07:48:59.810Z,60.96
2022-10-31T07:51:29.166Z,61.17
2022-10-31T07:53:57.103Z,61.42
2022-10-31T07:56:24.992Z,61.21
2022-10-31T07:58:52.869Z,61.40
2022-10-31T08:01:21.006Z,61.42
2022-10-31T08:03:48.992Z,61.38
2022-10-31T08:06:16.864Z,61.35
2022-10-31T08:08:46.163Z,61.04
2022-10-31T08:11:14.068Z,61.00
2022-10-31T08:13:43.804Z,61.32
2022-10-31T08:16:11.671Z,60.95
2022-10-31T08:18:39.585Z,61.38
2022-10-31T08:21:07.609Z,61.12
2022-10-31T08:23:35.504Z,61.29
2022-10-31T08:26:07.060Z,60.80
2022-10-31T08:28:34.975Z,61.07
2022-10-31T08:31:03.039Z,60.86
2022-10-31T08:33:30.931Z,61.07
2022-10-31T08:35:59.964Z,60.74
2022-10-31T08:38:27.939Z,60.70
2022-10-31T08:40:55.870Z,60.78
2022-10-31T08:43:25.144Z,60.51
2022-10-31T08:45:55.385Z,60.47
2022-10-31T08:48:23.279Z,60.18
2022-10-31T08:50:51.181Z,60.17
2022-10-31T08:53:19.697Z,59.99
2022-10-31T08:55:48.328Z,59.72
2022-10-31T08:58:17.507Z,59.46
2022-10-31T09:00:46.873Z,59.53
2022-10-31T09:03:15.566Z,59.67
2022-10-31T09:05:43.553Z,59.47
2022-10-31T09:08:16.031Z,59.36
2022-10-31T09:10:44.787Z,59.03
2022-10-31T09:13:13.549Z,58.56
2022-10-31T09:15:42.484Z,58.52
2022-10-31T09:18:11.914Z,58.60
2022-10-31T09:20:40.234Z,58.85
2022-10-31T09:23:09.130Z,58.60
2022-10-31T09:25:37.135Z,58.71
2022-10-31T09:28:06.328Z,58.89
2022-10-31T09:30:35.204Z,58.92
2022-10-31T09:33:03.721Z,58.59
2022-10-31T09:35:33.026Z,58.78
2022-10-31T09:38:02.212Z,58.54
2022-10-31T09:40:33.489Z,58.58
2022-10-31T09:43:04.902Z,58.35
2022-10-31T09:45:35.376Z,58.41
2022-10-31T09:48:19.737Z,58.90
2022-10-31T09:50:52.240Z,58.71
2022-10-31T09:53:25.001Z,58.59
2022-10-31T09:55:52.848Z,58.25
2022-10-31T09:58:22.417Z,58.35
2022-10-31T10:00:50.369Z,58.03
2022-10-31T10:03:24.761Z,58.34
2022-10-31T10:05:56.226Z,57.97
2022-10-31T10:08:26.140Z,58.15
2022-10-31T10:10:56.474Z,58.00
2022-10-31T10:13:39.897Z,58.21
2022-10-31T10:16:15.112Z,57.86
2022-10-31T10:18:50.267Z,57.79
2022-10-31T10:21:27.851Z,57.95
2022-10-31T10:24:04.271Z,58.18
2022-10-31T10:26:36.667Z,58.34
2022-10-31T10:29:17.042Z,58.01
2022-10-31T10:31:46.885Z,57.83
2022-10-31T10:34:18.277Z,57.76
2022-10-31T10:36:51.109Z,57.80
2022-10-31T10:39:20.915Z,57.96
2022-10-31T10:42:04.155Z,58.11
2022-10-31T10:44:49.149Z,57.98
2022-10-31T10:47:34.528Z,57.64
2022-10-31T10:50:02.412Z,57.53
2022-10-31T10:52:43.204Z,57.47
2022-10-31T10:55:16.301Z,57.25
2022-10-31T10:57:58.282Z,56.74
2022-10-31T11:00:27.357Z,56.81
2022-10-31T11:02:55.302Z,57.00
2022-10-31T11:05:26.508Z,56.83
2022-10-31T11:07:55.826Z,56.71
2022-10-31T11:10:23.730Z,56.37
2022-10-31T11:13:07.324Z,56.45
2022-10-31T11:15:38.577Z,56.04
2022-10-31T11:18:06.813Z,56.35
2022-10-31T11:20:35.761Z,55.54
2022-10-31T11:23:18.613Z,55.77
2022-10-31T11:25:54.122Z,55.66
2022-10-31T11:28:22.051Z,55.11
2022-10-31T11:30:50.660Z,55.29
2022-10-31T11:33:20.662Z,55.60
2022-10-31T11:35:52.056Z,55.29
2022-10-31T11:38:41.635Z,55.02
2022-10-31T11:41:13.464Z,55.08
2022-10-31T11:43:41.479Z,54.99
2022-10-31T11:46:12.636Z,54.51
2022-10-31T11:48:40.487Z,54.65
2022-10-31T11:51:09.482Z,53.67
2022-10-31T11:53:38.775Z,54.13
2022-10-31T11:56:11.367Z,54.04
2022-10-31T11:58:39.270Z,53.91
2022-10-31T12:01:07.356Z,53.97
2022-10-31T12:03:44.882Z,54.23
2022-10-31T12:06:15.925Z,55.55
2022-10-31T12:08:45.202Z,54.23
2022-10-31T12:11:19.426Z,52.75
2022-10-31T12:13:54.194Z,51.21
2022-10-31T12:16:24.820Z,49.14
2022-10-31T12:18:58.777Z,48.84
2022-10-31T12:21:45.833Z,49.21
2022-10-31T12:24:22.309Z,49.21
2022-10-31T12:26:54.073Z,48.79
2022-10-31T12:31:59.662Z,47.80
2022-10-31T12:34:51.019Z,48.80
2022-10-31T12:37:26.954Z,50.48
2022-10-31T12:40:01.956Z,50.72
2022-10-31T12:42:38.311Z,49.24
2022-10-31T12:45:33.455Z,47.63
2022-10-31T12:48:08.791Z,46.33
2022-10-31T12:50:46.607Z,45.44
2022-10-31T12:53:21.686Z,43.66
2022-10-31T12:55:57.732Z,44.65
2022-10-31T12:58:27.895Z,44.91
2022-10-31T13:01:03.117Z,44.42
2022-10-31T13:03:34.588Z,42.61
2022-10-31T13:06:05.650Z,42.78
2022-10-31T13:08:38.566Z,41.76
2022-10-31T13:13:44.952Z,41.26
2022-10-31T13:16:15.420Z,41.25
2022-10-31T13:18:46.703Z,41.81
2022-10-31T13:21:17.481Z,42.31
2022-10-31T13:23:50.897Z,42.80
2022-10-31T13:26:23.935Z,43.14
2022-10-31T13:28:56.784Z,43.54
2022-10-31T13:31:24.650Z,43.69
2022-10-31T13:33:55.408Z,44.30
2022-10-31T13:36:28.384Z,44.75
2022-10-31T13:38:57.081Z,45.00
2022-10-31T13:41:35.173Z,45.40
2022-10-31T13:44:06.611Z,45.58
2022-10-31T13:46:38.775Z,45.80
2022-10-31T13:49:06.708Z,45.91
2022-10-31T13:51:36.210Z,46.21
2022-10-31T13:54:08.804Z,46.39
2022-10-31T13:56:36.843Z,46.49
2022-10-31T13:59:18.269Z,46.84
2022-10-31T14:01:50.789Z,47.14
2022-10-31T14:04:25.175Z,47.44
2022-10-31T14:06:59.051Z,47.81
2022-10-31T14:09:30.945Z,48.04
2022-10-31T14:11:59.444Z,48.36
2022-10-31T14:14:32.352Z,48.76
2022-10-31T14:17:00.195Z,48.82
2022-10-31T14:19:28.114Z,49.16
2022-10-31T14:21:56.048Z,49.45
2022-10-31T14:24:35.748Z,49.74
2022-10-31T14:27:04.745Z,49.67
2022-10-31T14:29:34.346Z,49.90
2022-10-31T14:32:13.714Z,50.28
2022-10-31T14:34:42.911Z,50.73
2022-10-31T14:37:34.995Z,50.63
2022-10-31T14:40:09.813Z,51.06
2022-10-31T14:42:46.571Z,51.24
2022-10-31T14:45:20.467Z,51.69
2022-10-31T14:47:59.414Z,51.70
2022-10-31T14:50:42.995Z,52.06
2022-10-31T14:53:14.877Z,52.18
2022-10-31T14:55:45.713Z,52.29
2022-10-31T14:58:17.822Z,52.22
2022-10-31T15:00:52.732Z,52.57
2022-10-31T15:03:24.356Z,52.90
2022-10-31T15:05:54.150Z,53.10
2022-10-31T15:08:37.302Z,53.63
2022-10-31T15:11:11.336Z,53.54
2022-10-31T15:13:44.171Z,53.75
2022-10-31T15:16:14.162Z,53.74
2022-10-31T15:18:54.977Z,54.10
2022-10-31T15:21:29.257Z,53.91
2022-10-31T15:23:58.331Z,53.70
2022-10-31T15:26:28.679Z,54.07
2022-10-31T15:29:01.337Z,54.02
2022-10-31T15:31:31.970Z,54.09
2022-10-31T15:34:02.424Z,53.95
2022-10-31T15:36:33.290Z,53.78
2022-10-31T15:39:03.813Z,53.90
2022-10-31T15:41:34.099Z,53.84
2022-10-31T15:44:04.347Z,53.92
2022-10-31T15:46:34.844Z,53.95
2022-10-31T15:49:02.820Z,53.95
2022-10-31T15:51:32.006Z,54.14
2022-10-31T15:54:00.899Z,54.32
2022-10-31T15:56:30.362Z,54.30
2022-10-31T15:58:59.718Z,54.28
2022-10-31T16:01:29.452Z,54.36
2022-10-31T16:04:04.252Z,54.53
2022-10-31T16:06:32.470Z,54.89
2022-10-31T16:09:00.408Z,54.93
2022-10-31T16:11:33.745Z,55.04
2022-10-31T16:14:02.791Z,54.78
2022-10-31T16:16:35.760Z,55.04
2022-10-31T16:19:06.660Z,55.30
2022-10-31T16:21:37.025Z,55.00
2022-10-31T16:24:06.893Z,55.06
2022-10-31T16:26:35.129Z,55.00
2022-10-31T16:29:05.396Z,55.12
2022-10-31T16:31:38.933Z,55.17
2022-10-31T16:34:17.093Z,55.40
2022-10-31T16:36:45.228Z,55.68
2022-10-31T16:39:14.693Z,55.91
2022-10-31T16:41:43.597Z,56.26
2022-10-31T16:44:19.313Z,56.21
2022-10-31T16:46:47.209Z,56.61
2022-10-31T16:49:17.559Z,56.61
2022-10-31T16:51:46.595Z,56.94
2022-10-31T16:54:14.496Z,57.01
2022-10-31T16:56:42.378Z,57.31
2022-10-31T16:59:16.423Z,57.63
2022-10-31T17:01:45.386Z,57.55
2022-10-31T17:04:16.493Z,57.53
2022-10-31T17:06:44.437Z,57.72
2022-10-31T17:09:12.325Z,58.01
2022-10-31T17:11:45.314Z,58.01
2022-10-31T17:14:16.210Z,58.16
2022-10-31T17:16:44.199Z,58.28
2022-10-31T17:19:12.431Z,58.65
2022-10-31T17:21:41.695Z,58.42
2022-10-31T17:24:10.672Z,59.20
2022-10-31T17:26:38.538Z,59.02
2022-10-31T17:29:06.499Z,59.22
2022-10-31T17:31:36.740Z,59.78
2022-10-31T17:34:05.301Z,60.00
2022-10-31T17:36:33.583Z,60.30
2022-10-31T17:39:03.358Z,60.58
2022-10-31T17:41:31.209Z,60.91
2022-10-31T17:43:59.185Z,60.81
2022-10-31T17:46:27.606Z,61.32
2022-10-31T17:48:55.506Z,61.46
2022-10-31T17:51:23.397Z,61.45
2022-10-31T17:53:51.680Z,61.66
2022-10-31T17:56:21.257Z,61.87
2022-10-31T17:58:49.203Z,61.74
2022-10-31T18:01:18.081Z,61.93
2022-10-31T18:03:46.164Z,62.08
2022-10-31T18:06:16.745Z,61.88
2022-10-31T18:08:44.749Z,62.26
2022-10-31T18:11:14.635Z,62.38
2022-10-31T18:13:43.919Z,62.54
2022-10-31T18:16:12.043Z,62.22
2022-10-31T18:18:39.939Z,62.37
2022-10-31T18:21:07.823Z,62.43
2022-10-31T18:23:35.680Z,62.11
2022-10-31T18:26:03.637Z,62.18
2022-10-31T18:28:31.537Z,62.00
2022-10-31T18:31:01.215Z,62.56
2022-10-31T18:33:29.076Z,62.42
2022-10-31T18:35:57.026Z,62.25
2022-10-31T18:38:25.579Z,62.30
2022-10-31T18:40:53.482Z,62.67
2022-10-31T18:43:21.337Z,62.38
2022-10-31T18:45:52.293Z,62.78
2022-10-31T18:48:24.567Z,62.79
2022-10-31T18:50:52.515Z,62.63
2022-10-31T18:53:20.545Z,62.47
2022-10-31T18:55:50.335Z,62.47
2022-10-31T18:58:18.387Z,62.24
2022-10-31T19:00:46.623Z,62.31
2022-10-31T19:03:14.590Z,62.05
2022-10-31T19:05:43.871Z,62.46
2022-10-31T19:08:11.726Z,62.28
2022-10-31T19:10:40.060Z,62.05
2022-10-31T19:13:07.934Z,62.40
2022-10-31T19:15:36.087Z,62.05
2022-10-31T19:18:04.525Z,62.07
2022-10-31T19:20:32.470Z,61.97
2022-10-31T19:23:02.038Z,62.25
2022-10-31T19:25:30.346Z,62.25
2022-10-31T19:27:58.912Z,62.01
2022-10-31T19:30:27.002Z,61.90
2022-10-31T19:32:55.211Z,61.99
2022-10-31T19:35:23.058Z,62.03
2022-10-31T19:37:50.947Z,61.84
2022-10-31T19:40:20.526Z,61.85
2022-10-31T19:42:48.366Z,61.63
2022-10-31T19:45:16.303Z,61.86
2022-10-31T19:47:44.190Z,61.87
2022-10-31T19:50:12.070Z,61.87
2022-10-31T19:52:40.035Z,61.88
2022-10-31T19:55:08.470Z,62.04
2022-10-31T20:00:26.236Z,61.89
2022-10-31T20:02:54.121Z,61.55
2022-10-31T20:05:22.068Z,61.58
2022-10-31T20:07:49.909Z,61.85
2022-10-31T20:10:17.893Z,61.80
2022-10-31T20:12:47.128Z,61.78
2022-10-31T20:15:15.074Z,61.46
2022-10-31T20:17:43.519Z,61.67
2022-10-31T20:20:11.998Z,61.62
2022-10-31T20:22:39.920Z,61.69
2022-10-31T20:25:08.458Z,61.63
2022-10-31T20:27:36.316Z,61.51
2022-10-31T20:30:06.407Z,61.29
2022-10-31T20:32:34.285Z,61.23
2022-10-31T20:35:02.205Z,61.40
2022-10-31T20:37:30.068Z,61.45
2022-10-31T20:39:58.013Z,61.58
2022-10-31T20:42:25.948Z,61.49
2022-10-31T20:44:53.810Z,61.51
2022-10-31T20:47:25.719Z,61.14
2022-10-31T20:49:53.789Z,61.32
2022-10-31T20:52:21.699Z,61.04
2022-10-31T20:54:49.628Z,61.39
2022-10-31T20:57:17.508Z,60.98
2022-10-31T20:59:45.445Z,61.00
2022-10-31T21:02:13.481Z,61.21
2022-10-31T21:04:42.910Z,61.17
2022-10-31T21:07:10.836Z,60.76
2022-10-31T21:09:38.742Z,60.89
2022-10-31T21:12:06.939Z,60.87
2022-10-31T21:14:36.550Z,61.09
2022-10-31T21:17:04.755Z,61.00
2022-10-31T21:19:33.409Z,61.06
2022-10-31T21:22:02.908Z,61.14
2022-10-31T21:24:30.880Z,60.79
2022-10-31T21:26:58.822Z,60.90
2022-10-31T21:29:26.708Z,60.99
2022-10-31T21:31:54.624Z,60.96
2022-10-31T21:34:22.483Z,60.84
2022-10-31T21:36:50.467Z,60.89
2022-10-31T21:39:19.875Z,60.51
2022-10-31T21:41:47.746Z,60.78
2022-10-31T21:44:15.663Z,60.65
2022-10-31T21:46:44.420Z,60.28
2022-10-31T21:49:12.482Z,59.97
2022-10-31T21:51:40.934Z,60.09
2022-10-31T21:54:28.410Z,60.27
2022-10-31T21:56:57.824Z,60.13
2022-10-31T21:59:25.743Z,60.27
2022-10-31T22:01:53.694Z,60.15
2022-10-31T22:04:21.637Z,60.09
2022-10-31T22:06:49.504Z,59.93
2022-10-31T22:09:18.812Z,59.83
2022-10-31T22:11:46.730Z,59.98
2022-10-31T22:14:16.414Z,60.12
2022-10-31T22:19:39.956Z,59.42
2022-10-31T22:22:07.858Z,59.80
2022-10-31T22:24:35.772Z,59.75
2022-10-31T22:27:03.640Z,59.76
2022-10-31T22:29:35.060Z,59.69
2022-10-31T22:32:03.054Z,59.37
2022-10-31T22:34:31.217Z,59.36
2022-10-31T22:36:59.133Z,59.63
2022-10-31T22:39:26.979Z,59.26
2022-10-31T22:41:54.890Z,59.23
2022-10-31T22:44:22.863Z,59.02
2022-10-31T22:46:52.101Z,59.14
2022-10-31T22:49:19.920Z,59.47
2022-10-31T22:51:47.833Z,59.28
2022-10-31T22:54:16.959Z,59.20
2022-10-31T22:56:44.848Z,59.31
2022-10-31T22:59:13.206Z,59.33
2022-10-31T23:01:41.138Z,59.86
2022-10-31T23:06:43.791Z,60.27
2022-10-31T23:09:12.331Z,60.55
2022-10-31T23:11:40.369Z,60.97
2022-10-31T23:14:09.520Z,61.86
2022-10-31T23:16:37.886Z,62.28
2022-10-31T23:19:07.991Z,62.36
2022-10-31T23:21:55.841Z,62.51
2022-10-31T23:24:28.516Z,62.99
2022-10-31T23:27:08.570Z,63.23
2022-10-31T23:29:44.406Z,63.85
2022-10-31T23:32:17.798Z,63.82
2022-10-31T23:34:52.331Z,63.79
2022-10-31T23:37:22.212Z,63.65
2022-10-31T23:39:50.157Z,63.88
2022-10-31T23:42:18.741Z,63.90
2022-10-31T23:44:46.697Z,64.15
2022-10-31T23:47:14.544Z,64.43
2022-10-31T23:49:42.416Z,64.24
2022-10-31T23:52:10.389Z,64.81
2022-10-31T23:54:39.730Z,64.44
2022-10-31T23:57:07.568Z,64.06
2022-10-31T23:59:36.772Z,64.66
